الصفحة الرئيسية
METAR-TAF:

METAR-TAF

مطار :

Mackay, أستراليا

دائرة عرض: 21-10-18S, خط طول: 149-10-47E, ارتفاع: 6 متر

مراقبة الطقس الحالي

تاريخ ووقت الإصدار 1ساعة و 14 دقيقة قبل الساعة 14:00UTC
ريح 5 عقدة من الغرب/الجنوب الغربي
درجة الحرارة 22°درجة مئوية
الرطوبة 88%
ضغط 1013 hPa
الرؤية 10 كم أو أكثر
غيوم متفرقة على ارتفاع 2300 قدم
غيوم مفككة على ارتفاع 3000 قدم
غيوم مفككة على ارتفاع 3300 قدم

METAR: YBMK 061400Z AUTO 24005KT 9999 // SCT023 BKN030 BKN033 22/20 Q1013

زمن: 01:14 (15:14 UTC)


TAF: مفقودة

أرصاد الطقس والتوقعات من أكثر من 4000 مطار (تقارير الطقس للمطار METAR والتنبؤ بالطقس بالمطارTAF).

المحطات المتاحة هي النقط الصفراء والحمراء على الخريطة.

حرك المؤشر فوق النقطة لمعرفة اسم المحطة.

ثم انقر لمعرفة أرصاد وتوقعات الطقس.

لتغيير الخارطة: اضغط على الأزرار الخضراء مع رمز الصليب الأسود للتكبير. على الزر الأخضر مع شرطة للتصغير، أو على الأسهم الخضراء للخرائط المجاورة.


METAR-TAF: